createdAt,value
2023-02-26T00:01:45.996Z,95595.00
2023-02-26T00:04:35.438Z,95600.78
2023-02-26T00:07:29.323Z,95602.19
2023-02-26T00:10:19.377Z,95609.00
2023-02-26T00:13:10.720Z,95605.50
2023-02-26T00:16:02.981Z,95607.94
2023-02-26T00:18:52.154Z,95609.56
2023-02-26T00:21:43.538Z,95615.34
2023-02-26T00:24:32.261Z,95615.94
2023-02-26T00:27:21.813Z,95612.44
2023-02-26T00:30:13.615Z,95618.00
2023-02-26T00:33:04.448Z,95622.28
2023-02-26T00:36:00.565Z,95621.47
2023-02-26T00:39:04.751Z,95616.97
2023-02-26T00:41:54.016Z,95630.06
2023-02-26T00:44:44.843Z,95630.47
2023-02-26T00:47:43.845Z,95628.84
2023-02-26T00:50:35.857Z,95630.47
2023-02-26T00:53:30.105Z,95627.81
2023-02-26T00:56:19.568Z,95629.63
2023-02-26T00:59:08.156Z,95627.78
2023-02-26T01:01:58.565Z,95624.09
2023-02-26T01:04:49.846Z,95629.63
2023-02-26T01:07:43.865Z,95627.78
2023-02-26T01:10:34.911Z,95632.06
2023-02-26T01:13:24.012Z,95625.09
2023-02-26T01:16:21.839Z,95628.59
2023-02-26T01:19:19.081Z,95632.06
2023-02-26T01:22:18.067Z,95630.66
2023-02-26T01:25:10.324Z,95637.44
2023-02-26T01:28:00.301Z,95631.69
2023-02-26T01:30:49.457Z,95630.88
2023-02-26T01:33:46.088Z,95631.03
2023-02-26T01:36:41.546Z,95637.41
2023-02-26T01:39:40.888Z,95631.22
2023-02-26T01:42:36.426Z,95633.69
2023-02-26T01:45:33.026Z,95638.22
2023-02-26T01:48:35.884Z,95633.03
2023-02-26T01:51:49.341Z,95644.56
2023-02-26T01:54:40.408Z,95646.38
2023-02-26T01:57:29.146Z,95648.03
2023-02-26T02:00:19.740Z,95646.59
2023-02-26T02:03:08.713Z,95650.28
2023-02-26T02:06:03.818Z,95645.56
2023-02-26T02:08:53.209Z,95648.44
2023-02-26T02:12:01.422Z,95635.09
2023-02-26T02:15:01.381Z,95654.78
2023-02-26T02:17:57.792Z,95650.47
2023-02-26T02:21:09.783Z,95650.69
2023-02-26T02:24:07.281Z,95645.88
2023-02-26T02:27:18.083Z,95663.13
2023-02-26T02:30:22.126Z,95649.97
2023-02-26T02:33:17.125Z,95669.25
2023-02-26T02:36:11.711Z,95663.09
2023-02-26T02:39:09.272Z,95670.03
2023-02-26T02:42:03.985Z,95679.25
2023-02-26T02:44:59.440Z,95671.88
2023-02-26T02:47:54.072Z,95679.44
2023-02-26T02:50:49.105Z,95671.41
2023-02-26T02:53:41.111Z,95680.25
2023-02-26T02:56:37.335Z,95688.84
2023-02-26T02:59:39.229Z,95683.91
2023-02-26T03:02:35.954Z,95686.72
2023-02-26T03:05:27.423Z,95698.25
2023-02-26T03:08:21.428Z,95693.69
2023-02-26T03:11:11.458Z,95704.50
2023-02-26T03:14:01.221Z,95710.03
2023-02-26T03:17:19.894Z,95719.47
2023-02-26T03:20:18.486Z,95716.19
2023-02-26T03:23:15.282Z,95717.59
2023-02-26T03:26:14.059Z,95719.63
2023-02-26T03:29:10.152Z,95718.56
2023-02-26T03:32:03.559Z,95722.38
2023-02-26T03:35:00.773Z,95717.25
2023-02-26T03:37:52.110Z,95722.78
2023-02-26T03:40:45.620Z,95724.97
2023-02-26T03:43:43.814Z,95732.78
2023-02-26T03:46:37.680Z,95726.41
2023-02-26T03:49:31.242Z,95726.75
2023-02-26T03:52:24.025Z,95730.00
2023-02-26T03:55:27.533Z,95729.34
2023-02-26T03:58:23.141Z,95729.69
2023-02-26T04:01:30.544Z,95737.94
2023-02-26T04:04:25.704Z,95753.22
2023-02-26T04:07:17.250Z,95747.06
2023-02-26T04:10:08.921Z,95752.97
2023-02-26T04:13:01.543Z,95741.63
2023-02-26T04:15:50.780Z,95766.06
2023-02-26T04:18:41.171Z,95766.53
2023-02-26T04:21:31.140Z,95762.19
2023-02-26T04:24:19.809Z,95774.13
2023-02-26T04:27:10.520Z,95771.47
2023-02-26T04:29:59.181Z,95776.34
2023-02-26T04:32:49.513Z,95777.66
2023-02-26T04:35:40.059Z,95789.31
2023-02-26T04:38:29.740Z,95783.81
2023-02-26T04:41:18.456Z,95788.81
2023-02-26T04:44:10.355Z,95794.78
2023-02-26T04:47:02.686Z,95792.94
2023-02-26T04:49:53.274Z,95793.97
2023-02-26T04:52:43.264Z,95799.09
2023-02-26T04:55:32.596Z,95808.28
2023-02-26T04:58:21.262Z,95815.38
2023-02-26T05:01:10.983Z,95815.19
2023-02-26T05:03:59.680Z,95824.19
2023-02-26T05:06:48.759Z,95824.53
2023-02-26T05:09:38.743Z,95825.66
2023-02-26T05:12:28.165Z,95812.72
2023-02-26T05:15:16.870Z,95835.66
2023-02-26T05:18:06.478Z,95828.94
2023-02-26T05:20:56.252Z,95823.28
2023-02-26T05:23:44.887Z,95830.44
2023-02-26T05:26:35.689Z,95836.75
2023-02-26T05:29:24.399Z,95831.75
2023-02-26T05:32:15.032Z,95823.41
2023-02-26T05:35:03.783Z,95836.97
2023-02-26T05:37:52.917Z,95844.53
2023-02-26T05:40:41.545Z,95838.38
2023-02-26T05:43:34.555Z,95840.22
2023-02-26T05:46:23.478Z,95848.34
2023-02-26T05:49:13.008Z,95847.72
2023-02-26T05:52:02.275Z,95859.00
2023-02-26T05:54:51.296Z,95854.16
2023-02-26T05:57:40.152Z,95852.66
2023-02-26T06:00:31.371Z,95863.16
2023-02-26T06:03:21.030Z,95852.59
2023-02-26T06:06:09.970Z,95869.63
2023-02-26T06:08:59.058Z,95856.00
2023-02-26T06:11:47.666Z,95867.75
2023-02-26T06:14:38.389Z,95876.53
2023-02-26T06:17:28.630Z,95868.81
2023-02-26T06:20:20.022Z,95843.78
2023-02-26T06:23:08.685Z,95889.09
2023-02-26T06:26:00.238Z,95888.84
2023-02-26T06:28:48.853Z,95894.78
2023-02-26T06:31:38.326Z,95903.06
2023-02-26T06:34:29.438Z,95911.94
2023-02-26T06:37:18.070Z,95911.13
2023-02-26T06:40:11.139Z,95915.88
2023-02-26T06:43:00.463Z,95917.81
2023-02-26T06:45:50.110Z,95918.53
2023-02-26T06:48:38.711Z,95929.84
2023-02-26T06:51:31.319Z,95933.41
2023-02-26T06:54:19.955Z,95934.25
2023-02-26T06:57:09.545Z,95938.91
2023-02-26T06:59:58.177Z,95940.47
2023-02-26T07:02:46.815Z,95939.34
2023-02-26T07:05:35.465Z,95952.56
2023-02-26T07:08:25.539Z,95933.28
2023-02-26T07:11:14.729Z,95956.56
2023-02-26T07:14:03.932Z,95958.56
2023-02-26T07:16:52.561Z,95939.94
2023-02-26T07:19:41.222Z,95961.41
2023-02-26T07:22:29.868Z,95965.78
2023-02-26T07:25:20.409Z,95942.66
2023-02-26T07:28:09.250Z,95974.41
2023-02-26T07:30:59.346Z,95966.59
2023-02-26T07:33:48.016Z,95983.50
2023-02-26T07:36:37.397Z,95991.69
2023-02-26T07:39:26.701Z,95991.22
2023-02-26T07:42:16.730Z,95983.72
2023-02-26T07:45:07.621Z,96005.94
2023-02-26T07:47:56.254Z,96013.91
2023-02-26T07:50:45.851Z,96010.38
2023-02-26T07:53:35.096Z,96018.25
2023-02-26T07:56:25.218Z,96009.03
2023-02-26T07:59:16.814Z,95981.88
2023-02-26T08:02:05.606Z,96016.22
2023-02-26T08:04:55.605Z,96015.47
2023-02-26T08:07:44.348Z,96025.44
2023-02-26T08:10:33.407Z,96022.88
2023-02-26T08:13:22.666Z,96020.91
2023-02-26T08:16:12.622Z,96032.25
2023-02-26T08:19:03.072Z,96035.31
2023-02-26T08:21:51.669Z,96045.47
2023-02-26T08:24:41.390Z,96043.81
2023-02-26T08:27:29.983Z,96052.44
2023-02-26T08:30:19.810Z,96057.47
2023-02-26T08:33:09.817Z,96054.44
2023-02-26T08:35:59.430Z,96062.75
2023-02-26T08:38:48.041Z,96065.75
2023-02-26T08:41:37.245Z,96070.78
2023-02-26T08:44:25.860Z,96076.19
2023-02-26T08:47:19.146Z,96068.47
2023-02-26T08:50:14.966Z,96082.06
2023-02-26T08:53:03.713Z,96087.00
2023-02-26T08:55:55.020Z,96088.69
2023-02-26T08:58:44.254Z,96105.84
2023-02-26T09:01:32.971Z,96104.56
2023-02-26T09:04:23.253Z,96107.66
2023-02-26T09:07:13.639Z,96100.50
2023-02-26T09:10:02.718Z,96114.78
2023-02-26T09:12:51.874Z,96122.41
2023-02-26T09:15:41.534Z,96122.41
2023-02-26T09:18:32.334Z,96126.56
2023-02-26T09:21:21.358Z,96131.09
2023-02-26T09:24:11.376Z,96136.22
2023-02-26T09:27:03.852Z,96136.47
2023-02-26T09:29:52.768Z,96142.00
2023-02-26T09:32:41.434Z,96144.28
2023-02-26T09:35:31.388Z,96145.72
2023-02-26T09:38:21.730Z,96163.03
2023-02-26T09:41:22.754Z,96161.16
2023-02-26T09:44:20.367Z,96161.34
2023-02-26T09:47:18.758Z,96166.44
2023-02-26T09:50:14.475Z,96177.84
2023-02-26T09:53:12.072Z,96172.31
2023-02-26T09:56:05.760Z,96182.84
2023-02-26T09:58:56.613Z,96188.94
2023-02-26T10:01:54.211Z,96185.88
2023-02-26T10:04:53.421Z,96194.09
2023-02-26T10:07:48.089Z,96192.81
2023-02-26T10:10:56.239Z,96197.28
2023-02-26T10:13:57.756Z,96194.25
2023-02-26T10:16:53.038Z,96190.53
2023-02-26T10:19:46.002Z,96191.38
2023-02-26T10:22:42.444Z,96176.94
2023-02-26T10:25:37.093Z,96184.38
2023-02-26T10:28:36.609Z,96191.59
2023-02-26T10:31:34.340Z,96192.00
2023-02-26T10:34:32.808Z,96193.97
2023-02-26T10:37:41.864Z,96204.66
2023-02-26T10:40:35.402Z,96204.06
2023-02-26T10:43:29.896Z,96195.44
2023-02-26T10:46:28.504Z,96206.06
2023-02-26T10:49:51.851Z,96209.44
2023-02-26T10:52:44.235Z,96206.97
2023-02-26T10:55:41.270Z,96203.97
2023-02-26T10:58:30.536Z,96205.47
2023-02-26T11:01:21.871Z,96208.38
2023-02-26T11:04:15.411Z,96205.28
2023-02-26T11:07:07.381Z,96202.56
2023-02-26T11:09:57.374Z,96181.78
2023-02-26T11:12:47.186Z,96202.56
2023-02-26T11:15:37.687Z,96192.91
2023-02-26T11:18:30.840Z,96197.25
2023-02-26T11:21:24.583Z,96192.91
2023-02-26T11:24:20.512Z,96185.28
2023-02-26T11:27:14.150Z,96185.47
2023-02-26T11:30:08.410Z,96186.13
2023-02-26T11:33:00.174Z,96175.38
2023-02-26T11:35:49.784Z,96161.56
2023-02-26T11:38:38.915Z,96166.66
2023-02-26T11:41:09.055Z,96168.94
2023-02-26T11:43:44.995Z,96157.34
2023-02-26T11:46:15.222Z,96162.34
2023-02-26T11:48:47.681Z,96158.97
2023-02-26T11:51:20.269Z,96149.09
2023-02-26T11:53:52.664Z,96146.31
2023-02-26T11:56:28.210Z,96132.66
2023-02-26T11:58:57.304Z,96132.50
2023-02-26T12:01:29.525Z,96144.84
2023-02-26T12:04:02.199Z,96153.09
2023-02-26T12:06:31.946Z,96147.00
2023-02-26T12:09:01.064Z,96170.97
2023-02-26T12:12:00.194Z,96179.88
2023-02-26T12:14:50.193Z,96184.19
2023-02-26T12:17:33.269Z,96174.75
2023-02-26T12:20:15.380Z,96182.81
2023-02-26T12:22:54.913Z,96184.50
2023-02-26T12:25:52.475Z,96188.56
2023-02-26T12:28:54.106Z,96193.38
2023-02-26T12:31:48.547Z,96186.13
2023-02-26T12:34:34.440Z,96179.59
2023-02-26T12:37:17.823Z,96191.16
2023-02-26T12:39:58.503Z,96190.72
2023-02-26T12:42:42.354Z,96187.06
2023-02-26T12:45:35.072Z,96195.13
2023-02-26T12:48:22.740Z,96171.19
2023-02-26T12:51:03.179Z,96188.50
2023-02-26T12:53:51.183Z,96199.66
2023-02-26T12:56:52.262Z,96208.09
2023-02-26T12:59:38.022Z,96200.66
2023-02-26T13:02:29.024Z,96196.97
2023-02-26T13:18:55.562Z,96136.34
2023-02-26T13:25:49.192Z,96071.81
2023-02-26T13:28:44.609Z,96075.03
2023-02-26T13:31:17.124Z,96205.78
2023-02-26T13:33:47.871Z,96191.78
2023-02-26T13:36:17.561Z,96207.53
2023-02-26T13:38:57.863Z,96206.25
2023-02-26T13:41:35.950Z,96188.66
2023-02-26T13:44:18.944Z,96201.69
2023-02-26T13:50:46.949Z,96193.13
2023-02-26T13:53:52.224Z,96208.66
2023-02-26T13:56:48.868Z,96202.69
2023-02-26T13:59:56.531Z,96152.41
2023-02-26T14:02:51.074Z,96216.44
2023-02-26T14:05:51.930Z,96101.84
2023-02-26T14:08:44.345Z,96211.38
2023-02-26T14:11:40.569Z,96155.78
2023-02-26T14:14:25.545Z,96215.59
2023-02-26T14:17:31.912Z,96213.25
2023-02-26T14:20:23.899Z,96207.19
2023-02-26T14:23:00.974Z,96219.81
2023-02-26T14:25:35.972Z,96199.81
2023-02-26T14:28:41.775Z,96228.75
2023-02-26T14:31:18.052Z,96188.13
2023-02-26T14:34:00.016Z,96239.72
2023-02-26T14:36:36.364Z,96248.31
2023-02-26T14:39:09.564Z,96202.38
2023-02-26T14:41:41.385Z,96246.88
2023-02-26T14:44:17.412Z,96237.84
2023-02-26T14:46:46.807Z,96253.56
2023-02-26T14:49:22.175Z,96240.50
2023-02-26T14:52:04.707Z,96254.50
2023-02-26T14:54:49.699Z,96224.78
2023-02-26T14:57:27.067Z,96243.59
2023-02-26T15:00:19.331Z,96252.84
2023-02-26T15:03:09.907Z,96237.56
2023-02-26T15:05:53.997Z,96255.84
2023-02-26T15:08:50.169Z,96257.06
2023-02-26T15:11:39.395Z,96244.63
2023-02-26T15:14:42.833Z,96263.94
2023-02-26T15:17:24.740Z,96266.19
2023-02-26T15:20:05.572Z,96262.75
2023-02-26T15:22:50.599Z,96256.78
2023-02-26T15:25:28.914Z,96297.97
2023-02-26T15:27:58.845Z,96271.41
2023-02-26T15:30:28.593Z,96296.16
2023-02-26T15:32:58.548Z,96308.56
2023-02-26T15:35:30.944Z,96303.81
2023-02-26T15:38:02.750Z,96316.63
2023-02-26T15:40:35.345Z,96319.50
2023-02-26T15:43:06.127Z,96326.91
2023-02-26T15:45:38.252Z,96319.19
2023-02-26T15:48:09.689Z,96327.13
2023-02-26T15:50:42.167Z,96319.28
2023-02-26T15:53:19.354Z,96320.78
2023-02-26T15:55:50.700Z,96317.72
2023-02-26T15:58:24.883Z,96320.22
2023-02-26T16:00:55.068Z,96328.38
2023-02-26T16:03:27.584Z,96322.81
2023-02-26T16:05:56.843Z,96331.50
2023-02-26T16:08:27.632Z,96328.38
2023-02-26T16:10:58.965Z,96330.03
2023-02-26T16:13:31.871Z,96346.31
2023-02-26T16:16:04.582Z,96349.56
2023-02-26T16:18:35.004Z,96355.44
2023-02-26T16:21:07.207Z,96365.88
2023-02-26T16:23:45.175Z,96362.41
2023-02-26T16:26:18.223Z,96361.34
2023-02-26T16:28:48.908Z,96366.03
2023-02-26T16:31:21.353Z,96370.16
2023-02-26T16:33:58.688Z,96377.78
2023-02-26T16:36:31.115Z,96376.06
2023-02-26T16:39:10.052Z,96378.03
2023-02-26T16:41:41.412Z,96384.81
2023-02-26T16:44:40.483Z,96396.34
2023-02-26T16:47:11.481Z,96372.88
2023-02-26T16:49:42.609Z,96401.69
2023-02-26T16:52:17.889Z,96407.47
2023-02-26T16:54:57.114Z,96413.59
2023-02-26T16:57:29.556Z,96418.53
2023-02-26T17:00:03.933Z,96426.06
2023-02-26T17:02:36.200Z,96402.22
2023-02-26T17:05:15.858Z,96438.56
2023-02-26T17:07:49.818Z,96427.44
2023-02-26T17:10:25.583Z,96441.00
2023-02-26T17:13:03.094Z,96454.50
2023-02-26T17:15:36.197Z,96448.09
2023-02-26T17:18:04.816Z,96462.47
2023-02-26T17:20:35.121Z,96465.97
2023-02-26T17:23:09.238Z,96472.06
2023-02-26T17:25:43.875Z,96459.47
2023-02-26T17:28:16.957Z,96467.59
2023-02-26T17:30:46.277Z,96477.78
2023-02-26T17:33:15.348Z,96486.81
2023-02-26T17:35:44.802Z,96484.88
2023-02-26T17:38:15.207Z,96481.69
2023-02-26T17:40:47.989Z,96470.72
2023-02-26T17:43:16.756Z,96483.72
2023-02-26T17:45:45.636Z,96501.41
2023-02-26T17:48:16.372Z,96495.25
2023-02-26T17:50:48.104Z,96506.66
2023-02-26T17:53:21.294Z,96487.47
2023-02-26T17:55:53.414Z,96479.66
2023-02-26T17:58:28.991Z,96468.72
2023-02-26T18:00:57.429Z,96504.44
2023-02-26T18:03:26.524Z,96499.28
2023-02-26T18:05:56.537Z,96508.41
2023-02-26T18:08:27.689Z,96516.13
2023-02-26T18:10:58.449Z,96521.91
2023-02-26T18:13:28.551Z,96516.38
2023-02-26T18:15:59.251Z,96527.00
2023-02-26T18:18:28.233Z,96524.50
2023-02-26T18:20:57.606Z,96522.19
2023-02-26T18:23:26.382Z,96520.91
2023-02-26T18:25:57.459Z,96520.53
2023-02-26T18:28:28.750Z,96521.63
2023-02-26T18:30:58.958Z,96542.16
2023-02-26T18:33:27.610Z,96538.13
2023-02-26T18:35:58.866Z,96542.97
2023-02-26T18:38:29.140Z,96542.06
2023-02-26T18:41:01.905Z,96538.19
2023-02-26T18:43:31.016Z,96543.09
2023-02-26T18:46:01.969Z,96541.06
2023-02-26T18:48:31.240Z,96543.28
2023-02-26T18:50:59.863Z,96545.38
2023-02-26T18:53:29.047Z,96552.31
2023-02-26T18:55:58.819Z,96548.97
2023-02-26T18:58:27.731Z,96553.47
2023-02-26T19:00:56.792Z,96559.47
2023-02-26T19:03:25.835Z,96565.25
2023-02-26T19:05:59.093Z,96571.66
2023-02-26T19:08:27.889Z,96577.66
2023-02-26T19:10:56.366Z,96579.31
2023-02-26T19:13:27.098Z,96562.34
2023-02-26T19:15:56.190Z,96589.72
2023-02-26T19:18:25.144Z,96588.25
2023-02-26T19:20:53.562Z,96595.81
2023-02-26T19:23:21.894Z,96593.41
2023-02-26T19:25:52.103Z,96594.22
2023-02-26T19:28:20.583Z,96600.25
2023-02-26T19:30:50.576Z,96601.41
2023-02-26T19:33:20.357Z,96600.66
2023-02-26T19:35:48.923Z,96594.97
2023-02-26T19:38:17.812Z,96604.78
2023-02-26T19:40:46.492Z,96591.00
2023-02-26T19:43:15.458Z,96596.16
2023-02-26T19:45:43.875Z,96601.41
2023-02-26T19:48:13.563Z,96593.25
2023-02-26T19:50:41.966Z,96597.72
2023-02-26T19:53:10.372Z,96598.16
2023-02-26T19:55:39.789Z,96607.19
2023-02-26T19:58:08.378Z,96612.03
2023-02-26T20:00:37.716Z,96604.22
2023-02-26T20:03:06.092Z,96605.69
2023-02-26T20:05:37.854Z,96565.72
2023-02-26T20:08:06.723Z,96605.47
2023-02-26T20:10:35.474Z,96611.28
2023-02-26T20:13:03.795Z,96614.75
2023-02-26T20:15:33.654Z,96601.63
2023-02-26T20:18:02.041Z,96616.84
2023-02-26T20:20:30.866Z,96611.13
2023-02-26T20:23:00.826Z,96612.81
2023-02-26T20:25:30.658Z,96618.50
2023-02-26T20:27:58.987Z,96616.03
2023-02-26T20:30:28.158Z,96626.56
2023-02-26T20:32:56.791Z,96612.94
2023-02-26T20:35:25.789Z,96616.97
2023-02-26T20:37:54.164Z,96622.97
2023-02-26T20:40:24.496Z,96619.09
2023-02-26T20:42:53.797Z,96618.13
2023-02-26T20:45:22.242Z,96606.88
2023-02-26T20:47:51.411Z,96620.22
2023-02-26T20:50:20.956Z,96620.09
2023-02-26T20:52:49.358Z,96614.56
2023-02-26T20:55:20.506Z,96627.41
2023-02-26T20:57:51.025Z,96628.41
2023-02-26T21:00:20.435Z,96627.09
2023-02-26T21:02:49.079Z,96628.59
2023-02-26T21:05:18.457Z,96631.97
2023-02-26T21:07:47.284Z,96634.50
2023-02-26T21:10:18.270Z,96618.34
2023-02-26T21:12:47.710Z,96633.81
2023-02-26T21:15:18.404Z,96640.84
2023-02-26T21:17:46.905Z,96643.31
2023-02-26T21:20:18.330Z,96649.34
2023-02-26T21:22:47.373Z,96658.53
2023-02-26T21:25:16.781Z,96659.06
2023-02-26T21:27:45.369Z,96677.19
2023-02-26T21:30:14.733Z,96668.53
2023-02-26T21:32:44.763Z,96667.03
2023-02-26T21:35:16.423Z,96678.19
2023-02-26T21:37:45.390Z,96667.19
2023-02-26T21:40:16.214Z,96672.00
2023-02-26T21:42:46.557Z,96670.19
2023-02-26T21:45:14.965Z,96679.84
2023-02-26T21:47:45.562Z,96670.69
2023-02-26T21:50:13.897Z,96670.88
2023-02-26T21:52:43.154Z,96675.88
2023-02-26T21:55:12.460Z,96672.84
2023-02-26T21:57:41.599Z,96677.34
2023-02-26T22:00:12.119Z,96667.50
2023-02-26T22:02:42.822Z,96674.81
2023-02-26T22:05:15.200Z,96685.50
2023-02-26T22:07:44.456Z,96679.16
2023-02-26T22:10:14.746Z,96681.50
2023-02-26T22:12:43.104Z,96681.00
2023-02-26T22:15:12.258Z,96678.91
2023-02-26T22:17:40.615Z,96681.25
2023-02-26T22:20:14.372Z,96693.09
2023-02-26T22:22:44.545Z,96699.09
2023-02-26T22:25:14.388Z,96704.59
2023-02-26T22:27:43.204Z,96704.88
2023-02-26T22:30:13.359Z,96703.88
2023-02-26T22:32:43.762Z,96700.56
2023-02-26T22:35:14.451Z,96701.91
2023-02-26T22:37:44.657Z,96715.38
2023-02-26T22:40:14.499Z,96713.22
2023-02-26T22:42:45.186Z,96715.69
2023-02-26T22:45:17.088Z,96724.19
2023-02-26T22:47:47.936Z,96714.69
2023-02-26T22:50:17.004Z,96713.81
2023-02-26T22:52:47.860Z,96719.47
2023-02-26T22:55:16.411Z,96721.28
2023-02-26T22:57:44.823Z,96720.13
2023-02-26T23:00:18.656Z,96709.50
2023-02-26T23:02:48.628Z,96709.50
2023-02-26T23:05:19.439Z,96712.47
2023-02-26T23:07:50.567Z,96719.50
2023-02-26T23:10:20.692Z,96706.25
2023-02-26T23:12:49.822Z,96716.56
2023-02-26T23:15:22.083Z,96708.56
2023-02-26T23:17:51.612Z,96717.22
2023-02-26T23:20:19.968Z,96721.38
2023-02-26T23:22:50.419Z,96721.03
2023-02-26T23:25:18.733Z,96717.06
2023-02-26T23:27:48.729Z,96720.56
2023-02-26T23:30:17.250Z,96723.72
2023-02-26T23:32:46.082Z,96716.91
2023-02-26T23:35:15.876Z,96720.91
2023-02-26T23:37:44.212Z,96719.91
2023-02-26T23:40:15.826Z,96729.25
2023-02-26T23:42:44.621Z,96727.44
2023-02-26T23:45:14.078Z,96729.31
2023-02-26T23:47:43.511Z,96738.28
2023-02-26T23:50:13.035Z,96738.94
2023-02-26T23:52:41.819Z,96736.78
2023-02-26T23:55:12.166Z,96737.63
2023-02-26T23:57:42.919Z,96735.78
